Time;durP1;ratioP1;P1;durP2;ratioP2;P2;SDS_P1;SDS_P2;PMS_P1;PMS_P2;Temp;Humidity;BMP_temperature;BMP_pressure;BME280_temperature;BME280_humidity;BME280_pressure;Samples;Min_cycle;Max_cycle;Signal;HPM_P1;HPM_P2
2021/09/25 00:01:37;;;;;;;;;28.25;28.25;;;;;11.90;92.12;100389.00;5154070;27;11152;-75
2021/09/25 00:04:33;;;;;;;;;27.25;27.25;;;;;11.76;92.36;100387.69;5170689;27;11909;-76
2021/09/25 00:07:29;;;;;;;;;33.75;33.25;;;;;11.81;92.55;100393.00;5174629;27;10987;-76
2021/09/25 00:10:26;;;;;;;;;24.25;24.25;;;;;11.77;92.42;100387.34;5155241;27;12169;-76
2021/09/25 00:13:22;;;;;;;;;23.50;23.00;;;;;11.73;92.76;100391.97;5153842;27;11855;-75
2021/09/25 00:16:17;;;;;;;;;27.75;26.25;;;;;11.70;92.23;100390.69;5140017;27;11161;-76
2021/09/25 00:19:13;;;;;;;;;28.00;28.00;;;;;11.58;92.48;100381.56;5159731;27;10971;-78
2021/09/25 00:22:09;;;;;;;;;29.50;27.75;;;;;11.57;91.75;100391.81;5159651;27;11076;-75
2021/09/25 00:25:06;;;;;;;;;26.50;26.50;;;;;11.60;91.55;100390.34;5165852;27;11205;-76
2021/09/25 00:28:02;;;;;;;;;25.25;25.25;;;;;11.64;91.61;100385.72;5153734;27;10996;-75
2021/09/25 00:30:58;;;;;;;;;27.25;26.75;;;;;11.63;92.12;100384.09;5153735;27;11151;-76
2021/09/25 00:33:53;;;;;;;;;24.75;24.75;;;;;11.58;92.03;100389.88;5139977;27;10993;-76
2021/09/25 00:36:49;;;;;;;;;32.75;32.00;;;;;11.62;91.51;100385.25;5153602;27;10993;-75
2021/09/25 00:39:44;;;;;;;;;29.25;29.25;;;;;11.66;91.46;100391.75;5153557;27;11022;-75
2021/09/25 00:42:40;;;;;;;;;28.00;27.00;;;;;11.52;91.53;100397.59;5139939;27;11143;-75
2021/09/25 00:45:36;;;;;;;;;25.25;25.25;;;;;11.59;91.31;100408.91;5153452;27;10988;-76
2021/09/25 00:48:32;;;;;;;;;27.25;27.00;;;;;11.53;91.45;100404.75;5140083;27;11075;-75
2021/09/25 00:51:28;;;;;;;;;24.25;24.25;;;;;11.55;91.37;100407.16;5174673;27;10976;-75
2021/09/25 00:54:24;;;;;;;;;26.50;25.50;;;;;11.49;91.87;100419.63;5174090;27;11154;-75
2021/09/25 00:57:20;;;;;;;;;17.00;17.00;;;;;11.43;92.05;100416.28;5176823;27;11126;-75
2021/09/25 01:00:16;;;;;;;;;27.25;25.00;;;;;11.52;91.99;100411.44;5164620;27;10842;-76
2021/09/25 01:03:12;;;;;;;;;27.50;27.50;;;;;11.45;92.21;100411.19;5178100;27;11751;-76
2021/09/25 01:06:08;;;;;;;;;28.50;28.00;;;;;11.48;92.84;100416.03;5166944;27;11969;-76
2021/09/25 01:09:04;;;;;;;;;28.00;27.50;;;;;11.48;92.44;100415.25;5157307;27;11239;-76
2021/09/25 01:12:01;;;;;;;;;28.50;28.25;;;;;11.57;91.91;100422.28;5144069;27;11083;-76
2021/09/25 01:14:56;;;;;;;;;29.75;29.75;;;;;11.57;91.81;100415.94;5157200;27;11322;-75
2021/09/25 01:17:52;;;;;;;;;28.00;27.75;;;;;11.66;91.44;100422.22;5157410;27;11262;-75
2021/09/25 01:20:47;;;;;;;;;28.25;28.25;;;;;11.55;91.73;100421.03;5157283;27;11234;-76
2021/09/25 01:23:44;;;;;;;;;27.75;27.75;;;;;11.64;91.28;100421.72;5157137;27;11068;-75
2021/09/25 01:26:39;;;;;;;;;28.50;27.50;;;;;11.69;91.49;100427.03;5157021;27;11142;-76
2021/09/25 01:29:36;;;;;;;;;31.25;31.25;;;;;11.57;91.49;100419.50;5157039;27;11732;-76
2021/09/25 01:32:32;;;;;;;;;22.25;22.25;;;;;11.53;91.44;100415.03;5174895;27;11101;-76
2021/09/25 01:35:28;;;;;;;;;28.25;28.25;;;;;11.52;91.43;100425.28;5170899;27;10995;-76
2021/09/25 01:38:24;;;;;;;;;23.75;23.75;;;;;11.58;91.21;100434.19;5156810;27;11079;-76
2021/09/25 01:41:20;;;;;;;;;27.00;26.25;;;;;11.50;91.04;100435.06;5156896;27;10916;-75
2021/09/25 01:44:15;;;;;;;;;31.50;31.50;;;;;11.54;90.83;100438.78;5156689;27;10991;-75
2021/09/25 01:47:11;;;;;;;;;22.00;22.00;;;;;11.36;91.75;100447.28;5171905;27;11156;-76
2021/09/25 01:50:10;;;;;;;;;27.00;27.00;;;;;11.36;91.27;100436.22;5177661;27;10911;-75
2021/09/25 01:53:06;;;;;;;;;27.00;27.00;;;;;11.30;91.40;100439.53;5177436;27;11222;-76
2021/09/25 01:56:10;;;;;;;;;28.50;28.25;;;;;11.25;91.78;100443.31;5177269;27;11085;-76
2021/09/25 01:59:06;;;;;;;;;33.75;33.00;;;;;11.39;91.91;100449.38;5162764;27;11081;-76
2021/09/25 02:02:02;;;;;;;;;29.25;29.25;;;;;11.29;91.72;100449.00;5156378;27;11451;-76
2021/09/25 02:04:58;;;;;;;;;26.25;26.25;;;;;11.29;91.87;100458.13;5156307;27;11459;-76
2021/09/25 02:07:54;;;;;;;;;25.00;25.00;;;;;11.43;91.03;100465.31;5155023;27;11273;-76
2021/09/25 02:10:49;;;;;;;;;31.75;30.50;;;;;11.35;90.61;100465.06;5156238;27;11015;-76
2021/09/25 02:13:46;;;;;;;;;34.25;31.75;;;;;11.43;90.87;100463.34;5157493;27;11064;-76
2021/09/25 02:16:42;;;;;;;;;25.50;24.50;;;;;11.46;91.14;100478.47;5168432;27;11159;-76
2021/09/25 02:19:38;;;;;;;;;27.25;26.25;;;;;11.55;91.38;100477.22;5176825;27;11072;-76
2021/09/25 02:22:35;;;;;;;;;29.25;27.75;;;;;11.58;91.63;100482.09;5176789;27;10986;-76
2021/09/25 02:25:31;;;;;;;;;28.25;28.25;;;;;11.66;91.34;100486.72;5177163;27;11203;-76
2021/09/25 02:28:28;;;;;;;;;29.75;29.25;;;;;11.73;91.30;100497.25;5176780;27;11006;-76
2021/09/25 02:31:24;;;;;;;;;26.50;26.00;;;;;11.76;91.34;100504.84;5176979;27;11112;-76
2021/09/25 02:34:19;;;;;;;;;27.25;26.75;;;;;11.81;91.26;100507.44;5176506;27;10951;-76
2021/09/25 02:37:15;;;;;;;;;32.50;31.25;;;;;11.72;91.28;100511.41;5176946;27;11232;-77
2021/09/25 02:40:12;;;;;;;;;27.25;27.25;;;;;11.74;91.04;100512.72;5176524;27;11075;-77
2021/09/25 02:43:08;;;;;;;;;32.50;27.00;;;;;11.67;90.64;100513.28;5176520;27;10915;-76
2021/09/25 02:46:04;;;;;;;;;28.75;28.75;;;;;11.70;90.28;100514.53;5169022;27;11898;-76
2021/09/25 02:49:00;;;;;;;;;27.00;26.00;;;;;11.67;90.10;100513.28;5155389;27;11270;-77
2021/09/25 02:51:55;;;;;;;;;24.25;23.75;;;;;11.65;89.97;100523.88;5154599;27;11203;-76
2021/09/25 02:54:51;;;;;;;;;28.50;27.50;;;;;11.62;89.66;100532.06;5157730;27;11197;-76
2021/09/25 02:57:47;;;;;;;;;23.25;23.25;;;;;11.60;89.94;100531.59;5174399;27;11112;-76
2021/09/25 03:00:43;;;;;;;;;24.50;23.75;;;;;11.52;90.20;100538.03;5167554;27;11044;-76
2021/09/25 03:03:39;;;;;;;;;25.50;24.75;;;;;11.54;89.83;100535.72;5170268;27;11047;-75
2021/09/25 03:06:35;;;;;;;;;21.75;21.75;;;;;11.51;89.46;100534.47;5175901;27;11081;-75
2021/09/25 03:09:30;;;;;;;;;23.00;22.00;;;;;11.47;88.86;100529.94;5175255;27;10925;-76
2021/09/25 03:12:26;;;;;;;;;25.75;25.75;;;;;11.43;89.23;100534.53;5175832;27;10920;-76
2021/09/25 03:15:22;;;;;;;;;22.75;21.75;;;;;11.38;89.54;100522.50;5175202;27;11097;-76
2021/09/25 03:18:18;;;;;;;;;23.00;23.00;;;;;11.45;89.57;100530.28;5175544;27;10927;-76
2021/09/25 03:21:14;;;;;;;;;9.00;9.00;;;;;11.36;89.87;100537.84;5175824;27;10974;-76
2021/09/25 03:24:10;;;;;;;;;23.25;22.75;;;;;11.43;90.00;100543.66;5175030;27;10946;-76
2021/09/25 03:27:05;;;;;;;;;22.00;22.00;;;;;11.38;89.94;100541.09;5175535;27;10870;-76
2021/09/25 03:30:03;;;;;;;;;26.75;26.50;;;;;11.35;90.29;100539.81;5168295;27;11068;-76
2021/09/25 03:32:58;;;;;;;;;28.00;27.25;;;;;11.35;90.05;100547.31;5140906;27;11405;-76
2021/09/25 03:35:54;;;;;;;;;24.25;23.75;;;;;11.37;89.78;100548.59;5154406;27;11064;-76
2021/09/25 03:38:50;;;;;;;;;23.50;23.50;;;;;11.43;89.27;100543.66;5154476;27;11064;-75
2021/09/25 03:41:46;;;;;;;;;26.25;26.25;;;;;11.31;89.65;100551.91;5154575;27;11506;-76
2021/09/25 03:44:41;;;;;;;;;27.25;27.25;;;;;11.31;88.83;100547.16;5144847;27;11046;-78
2021/09/25 03:47:37;;;;;;;;;26.75;23.50;;;;;11.30;88.83;100540.00;5155293;27;11068;-78
2021/09/25 03:50:34;;;;;;;;;25.75;25.75;;;;;11.33;88.76;100541.28;5154480;27;11121;-78
2021/09/25 03:53:30;;;;;;;;;26.75;26.00;;;;;11.35;88.85;100550.09;5154023;27;11427;-78
2021/09/25 03:56:25;;;;;;;;;25.50;24.25;;;;;11.35;88.62;100548.13;5154221;27;11150;-77
2021/09/25 03:59:36;;;;;;;;;21.50;21.50;;;;;11.31;89.13;100560.22;5154159;27;11219;-81
2021/09/25 04:02:32;;;;;;;;;27.25;27.25;;;;;11.35;89.43;100561.97;5157749;27;11159;-81
2021/09/25 04:05:27;;;;;;;;;26.00;25.50;;;;;11.28;89.70;100570.00;5154117;27;11458;-81
2021/09/25 04:08:27;;;;;;;;;22.25;22.25;;;;;11.19;90.61;100571.19;5154050;27;11220;-81
2021/09/25 04:11:22;;;;;;;;;20.00;17.00;;;;;11.25;90.54;100570.66;5155426;27;11758;-82
2021/09/25 04:14:20;;;;;;;;;26.50;20.00;;;;;11.31;89.75;100574.84;5174544;27;12059;-81
2021/09/25 04:17:16;;;;;;;;;21.00;21.00;;;;;11.32;89.51;100584.78;5175090;27;11543;-80
2021/09/25 04:20:12;;;;;;;;;20.00;20.00;;;;;11.33;89.01;100575.31;5174502;27;11107;-81
2021/09/25 04:23:08;;;;;;;;;27.00;25.50;;;;;11.34;88.59;100593.53;5174696;27;11276;-81
2021/09/25 04:26:03;;;;;;;;;21.25;20.00;;;;;11.43;88.41;100612.06;5174540;27;11077;-81
2021/09/25 04:29:02;;;;;;;;;27.50;27.50;;;;;11.35;88.58;100622.88;5173992;27;11147;-81
2021/09/25 04:31:58;;;;;;;;;26.50;25.00;;;;;11.44;88.77;100622.81;5171804;27;11015;-79
2021/09/25 04:34:54;;;;;;;;;22.25;22.25;;;;;11.50;88.41;100631.69;5155578;27;10837;-81
2021/09/25 04:37:50;;;;;;;;;15.50;15.50;;;;;11.52;88.40;100629.44;5153680;27;10850;-81
2021/09/25 04:40:45;;;;;;;;;17.00;17.00;;;;;11.57;88.50;100631.97;5154522;27;10846;-81
2021/09/25 04:43:41;;;;;;;;;20.75;20.75;;;;;11.68;88.01;100647.84;5141291;27;10825;-79
2021/09/25 04:46:41;;;;;;;;;16.25;16.25;;;;;11.72;88.13;100659.06;5168792;27;10859;-80
2021/09/25 04:49:37;;;;;;;;;16.25;15.75;;;;;11.84;87.66;100663.88;5174555;27;10751;-81
2021/09/25 04:52:33;;;;;;;;;17.00;17.00;;;;;11.91;86.89;100659.41;5165506;27;10572;-81
2021/09/25 04:55:29;;;;;;;;;17.25;16.50;;;;;11.95;86.24;100665.06;5164691;27;10606;-80
2021/09/25 04:58:29;;;;;;;;;17.50;17.50;;;;;12.00;86.46;100666.84;5156513;27;10606;-82
2021/09/25 05:01:26;;;;;;;;;16.50;16.50;;;;;12.07;86.14;100667.09;5158204;27;10528;-82
2021/09/25 05:04:22;;;;;;;;;12.50;12.50;;;;;12.18;84.83;100671.03;5159771;27;10439;-82
2021/09/25 05:07:18;;;;;;;;;16.50;16.50;;;;;12.20;84.99;100675.09;5157713;27;10583;-81
2021/09/25 05:10:14;;;;;;;;;12.25;12.25;;;;;12.20;84.61;100677.06;5168507;27;10508;-81
2021/09/25 05:13:09;;;;;;;;;14.75;14.75;;;;;12.23;84.83;100677.19;5169211;27;10520;-80
2021/09/25 05:16:05;;;;;;;;;17.50;17.50;;;;;12.09;84.34;100676.69;5160150;27;10667;-80
2021/09/25 05:19:01;;;;;;;;;17.00;17.00;;;;;12.24;84.96;100676.03;5174356;27;10383;-81
2021/09/25 05:21:56;;;;;;;;;12.50;12.50;;;;;12.22;85.13;100686.66;5164994;27;10458;-80
2021/09/25 05:24:52;;;;;;;;;13.25;13.25;;;;;12.27;84.93;100687.56;5150451;27;10445;-80
2021/09/25 05:27:49;;;;;;;;;12.25;12.25;;;;;12.28;84.80;100692.81;5159180;27;10278;-81
2021/09/25 05:30:44;;;;;;;;;13.00;13.00;;;;;12.36;84.76;100693.88;5162385;27;10084;-81
2021/09/25 05:33:44;;;;;;;;;14.25;14.25;;;;;12.48;84.13;100697.47;5163102;27;10418;-80
2021/09/25 05:36:42;;;;;;;;;18.00;17.75;;;;;12.55;83.99;100707.19;5159703;27;10143;-78
2021/09/25 05:39:39;;;;;;;;;12.75;12.75;;;;;12.67;83.64;100712.78;5161496;27;10429;-78
2021/09/25 05:42:35;;;;;;;;;11.75;11.75;;;;;12.79;83.74;100698.91;5161978;27;10296;-80
2021/09/25 05:45:30;;;;;;;;;18.00;18.00;;;;;12.82;83.77;100708.53;5166930;27;10198;-79
2021/09/25 05:48:26;;;;;;;;;15.00;15.00;;;;;12.96;83.93;100698.69;5168626;27;10310;-79
2021/09/25 05:51:22;;;;;;;;;12.75;12.75;;;;;13.23;82.44;100719.41;5166942;27;10307;-79
2021/09/25 05:54:17;;;;;;;;;16.25;16.25;;;;;13.29;81.95;100711.66;5168018;27;10966;-78
2021/09/25 05:57:13;;;;;;;;;15.50;15.50;;;;;13.21;81.89;100707.84;5165619;27;10106;-79
2021/09/25 06:00:10;;;;;;;;;13.00;13.00;;;;;13.41;82.27;100705.28;5167109;27;10198;-80
2021/09/25 06:03:06;;;;;;;;;12.00;12.00;;;;;13.53;81.95;100708.03;5163625;27;9983;-78
2021/09/25 06:06:02;;;;;;;;;16.00;16.00;;;;;13.44;80.67;100710.16;5152371;27;9825;-78
2021/09/25 06:08:57;;;;;;;;;13.00;13.00;;;;;13.55;81.42;100712.06;5164889;27;9913;-79
2021/09/25 06:11:54;;;;;;;;;12.00;12.00;;;;;13.59;81.36;100721.34;5166957;27;9903;-79
2021/09/25 06:14:53;;;;;;;;;12.00;12.00;;;;;13.62;81.18;100726.19;5164955;27;9820;-79
2021/09/25 06:17:48;;;;;;;;;12.75;12.75;;;;;13.70;82.04;100721.66;5165977;27;9737;-78
2021/09/25 06:20:44;;;;;;;;;10.25;10.25;;;;;13.75;81.84;100740.06;5167422;27;9824;-78
2021/09/25 06:23:40;;;;;;;;;10.00;9.50;;;;;13.86;79.96;100741.19;5168383;27;9700;-79
2021/09/25 06:26:35;;;;;;;;;14.50;13.50;;;;;13.87;80.33;100753.94;5165889;27;9586;-79
2021/09/25 06:29:31;;;;;;;;;14.00;14.00;;;;;14.05;80.48;100766.41;5164889;27;9661;-78
2021/09/25 06:32:26;;;;;;;;;13.75;13.75;;;;;13.98;79.39;100776.50;5165051;27;9841;-79
2021/09/25 06:35:22;;;;;;;;;12.25;12.25;;;;;14.00;79.97;100777.75;5164062;27;9867;-78
2021/09/25 06:38:18;;;;;;;;;12.75;12.75;;;;;14.19;79.83;100788.25;5164972;27;9856;-78
2021/09/25 06:41:13;;;;;;;;;16.75;16.75;;;;;14.29;80.10;100787.75;5164634;27;9657;-78
2021/09/25 06:44:10;;;;;;;;;12.00;12.00;;;;;14.31;78.99;100793.78;5162622;27;9696;-78
2021/09/25 06:47:06;;;;;;;;;13.25;13.00;;;;;14.28;79.40;100797.25;5167021;27;9387;-79
2021/09/25 06:50:06;;;;;;;;;9.25;9.25;;;;;14.51;78.98;100799.53;5165647;27;9597;-79
2021/09/25 06:53:02;;;;;;;;;9.00;9.00;;;;;14.63;78.27;100807.81;5167696;27;9492;-79
2021/09/25 06:55:57;;;;;;;;;14.50;14.00;;;;;14.70;77.79;100810.78;5152872;27;9573;-78
2021/09/25 06:58:53;;;;;;;;;13.00;13.00;;;;;14.82;78.70;100824.66;5164108;27;9585;-78
2021/09/25 07:01:48;;;;;;;;;10.75;10.50;;;;;14.89;76.89;100826.81;5169719;27;9629;-78
2021/09/25 07:04:44;;;;;;;;;18.33;18.33;;;;;14.99;77.49;100831.88;5165283;27;9589;-78
2021/09/25 07:07:40;;;;;;;;;8.25;8.25;;;;;15.08;77.32;100829.72;5150903;27;9357;-79
2021/09/25 07:10:38;;;;;;;;;13.67;13.67;;;;;15.17;77.02;100835.09;5166653;27;9503;-76
2021/09/25 07:13:37;;;;;;;;;15.67;14.67;;;;;15.28;76.14;100845.38;5165377;27;9372;-77
2021/09/25 07:16:33;;;;;;;;;23.75;23.75;;;;;15.36;76.74;100851.13;5150130;27;9200;-78
2021/09/25 07:19:29;;;;;;;;;15.00;15.00;;;;;15.30;75.13;100853.38;5168665;27;9779;-78
2021/09/25 07:22:26;;;;;;;;;16.67;16.67;;;;;15.29;76.64;100860.13;5166245;27;9497;-78
2021/09/25 07:25:22;;;;;;;;;14.33;14.33;;;;;15.36;75.42;100862.28;5165137;27;9387;-79
2021/09/25 07:28:18;;;;;;;;;16.33;16.33;;;;;15.39;77.13;100862.34;5162982;27;9412;-79
2021/09/25 07:31:14;;;;;;;;;16.67;16.67;;;;;15.56;75.88;100862.00;5163704;27;9454;-78
2021/09/25 07:34:13;;;;;;;;;14.00;14.00;;;;;15.71;76.60;100877.13;5164638;27;9294;-79
2021/09/25 07:37:08;;;;;;;;;15.00;15.00;;;;;15.87;74.96;100877.09;5154432;27;9244;-80
2021/09/25 07:40:08;;;;;;;;;17.00;16.33;;;;;15.87;75.22;100881.88;5154213;27;8978;-81
2021/09/25 07:43:05;;;;;;;;;13.00;13.00;;;;;15.88;75.31;100889.91;5155849;27;9153;-79
2021/09/25 07:46:00;;;;;;;;;15.33;15.33;;;;;15.94;75.57;100894.00;5157597;27;9232;-81
2021/09/25 07:48:59;;;;;;;;;8.67;8.67;;;;;16.07;74.20;100891.91;5161895;27;9164;-77
2021/09/25 07:51:58;;;;;;;;;15.67;15.67;;;;;16.05;74.53;100883.13;5160307;27;8906;-79
2021/09/25 07:54:54;;;;;;;;;13.75;13.75;;;;;16.10;73.79;100892.00;5155410;27;9154;-78
2021/09/25 07:57:49;;;;;;;;;11.33;11.33;;;;;16.06;73.69;100884.72;5151283;27;8930;-78
2021/09/25 08:00:45;;;;;;;;;15.33;15.33;;;;;15.87;73.61;100896.63;5175142;27;8911;-78
2021/09/25 08:03:43;;;;;;;;;13.67;13.67;;;;;16.07;73.36;100901.09;5171108;27;9035;-78
2021/09/25 08:06:39;;;;;;;;;16.33;16.33;;;;;16.27;73.73;100904.75;5154770;27;9002;-78
2021/09/25 08:09:34;;;;;;;;;14.50;14.50;;;;;16.32;73.36;100914.81;5154072;27;8991;-78
2021/09/25 08:12:30;;;;;;;;;12.33;12.33;;;;;16.42;73.15;100916.25;5164888;27;8834;-78
2021/09/25 08:15:26;;;;;;;;;16.00;16.00;;;;;16.35;72.41;100926.06;5171222;27;8988;-78
2021/09/25 08:18:21;;;;;;;;;14.00;14.00;;;;;16.58;72.81;100925.38;5155616;27;9063;-77
2021/09/25 08:21:17;;;;;;;;;8.25;8.25;;;;;16.63;72.49;100925.84;5154008;27;8917;-76
2021/09/25 08:24:13;;;;;;;;;16.33;16.33;;;;;16.58;72.05;100928.16;5153995;27;8936;-77
2021/09/25 08:27:10;;;;;;;;;45.00;40.00;;;;;16.76;71.01;100929.34;5159369;27;8975;-76
2021/09/25 08:30:07;;;;;;;;;11.33;11.33;;;;;16.67;71.79;100934.34;5161461;27;10340;-78
2021/09/25 08:33:03;;;;;;;;;14.25;14.25;;;;;16.66;72.26;100932.72;5165662;27;9695;-77
2021/09/25 08:36:01;;;;;;;;;15.75;15.00;;;;;16.65;72.53;100942.28;5154417;27;8871;-74
2021/09/25 08:38:56;;;;;;;;;16.00;16.00;;;;;16.73;76.72;100940.47;5140659;27;8947;-74
2021/09/25 08:41:53;;;;;;;;;15.00;15.00;;;;;16.52;74.55;100951.94;5153375;27;8918;-74
2021/09/25 08:44:52;;;;;;;;;16.00;16.00;;;;;16.42;78.44;100953.34;5153493;27;8864;-74
2021/09/25 08:47:48;;;;;;;;;20.33;20.33;;;;;16.23;78.67;100951.28;5153391;27;8818;-73
2021/09/25 08:50:44;;;;;;;;;18.00;17.33;;;;;16.49;81.92;100947.91;5153684;27;8985;-73
2021/09/25 08:53:39;;;;;;;;;23.00;21.50;;;;;16.77;81.84;100933.75;5153303;27;9191;-73
2021/09/25 08:56:37;;;;;;;;;16.50;16.50;;;;;16.60;75.14;100931.38;5153445;27;8833;-73
2021/09/25 08:59:33;;;;;;;;;14.00;13.75;;;;;16.80;76.63;100930.25;5153269;27;8821;-73
2021/09/25 09:02:31;;;;;;;;;14.75;14.75;;;;;17.19;76.92;100933.03;5153089;27;8848;-73
2021/09/25 09:05:29;;;;;;;;;16.00;16.00;;;;;17.30;73.09;100930.44;5153532;27;8837;-74
2021/09/25 09:08:26;;;;;;;;;15.25;15.25;;;;;17.56;73.45;100941.72;5152622;27;8821;-73
2021/09/25 09:11:23;;;;;;;;;15.50;15.50;;;;;18.20;76.33;100947.59;5153593;27;8821;-73
2021/09/25 09:14:19;;;;;;;;;10.00;10.00;;;;;18.08;72.73;100958.97;5158826;27;9583;-73
2021/09/25 09:17:16;;;;;;;;;10.00;10.00;;;;;18.35;70.01;100966.22;5149756;27;8823;-72
2021/09/25 09:20:12;;;;;;;;;10.50;10.50;;;;;18.53;66.27;100967.28;5171632;27;8811;-74
2021/09/25 09:23:12;;;;;;;;;9.25;9.25;;;;;19.24;67.77;100975.81;5146627;27;8856;-74
2021/09/25 09:26:08;;;;;;;;;9.75;9.75;;;;;18.86;68.33;100971.34;5158101;27;8843;-75
2021/09/25 09:29:07;;;;;;;;;11.00;11.00;;;;;19.45;69.41;100978.06;5157366;27;8845;-73
2021/09/25 09:32:06;;;;;;;;;11.00;11.00;;;;;19.47;64.78;100977.66;5143262;27;8829;-74
2021/09/25 09:35:10;;;;;;;;;8.00;8.00;;;;;19.27;63.83;100979.88;5172115;27;8926;-74
2021/09/25 09:38:06;;;;;;;;;10.75;10.75;;;;;19.75;66.66;100986.41;5142910;27;8828;-74
2021/09/25 09:41:02;;;;;;;;;8.75;8.75;;;;;19.86;64.12;100992.94;5156985;27;9025;-75
2021/09/25 09:44:01;;;;;;;;;9.00;9.00;;;;;19.82;63.41;101000.50;5142972;27;9581;-73
2021/09/25 09:46:59;;;;;;;;;9.00;9.00;;;;;19.57;62.87;101005.88;5157702;27;8821;-74
2021/09/25 09:49:56;;;;;;;;;9.00;9.00;;;;;19.62;61.68;101002.69;5157527;27;8821;-74
2021/09/25 09:52:52;;;;;;;;;7.50;7.50;;;;;19.96;60.60;101011.88;5168829;27;8833;-73
2021/09/25 09:55:48;;;;;;;;;9.00;8.00;;;;;19.89;64.02;101006.19;5158684;27;8850;-74
2021/09/25 09:58:44;;;;;;;;;7.50;7.50;;;;;19.47;62.65;101000.91;5156587;27;8840;-74
2021/09/25 10:01:42;;;;;;;;;6.50;6.50;;;;;19.07;62.33;101012.84;5171456;27;8815;-74
2021/09/25 10:04:38;;;;;;;;;6.25;6.25;;;;;18.65;62.63;101013.06;5177030;27;9587;-76
2021/09/25 10:07:34;;;;;;;;;6.75;6.75;;;;;18.38;61.88;101015.84;5163414;27;8922;-77
2021/09/25 10:10:29;;;;;;;;;5.75;5.75;;;;;18.06;63.30;101023.72;5177227;27;8854;-77
2021/09/25 10:13:27;;;;;;;;;6.25;6.25;;;;;17.89;64.42;101025.03;5177074;27;8837;-77
2021/09/25 10:16:23;;;;;;;;;7.75;7.75;;;;;17.85;64.48;101020.53;5177217;27;8962;-77
2021/09/25 10:19:26;;;;;;;;;7.00;7.00;;;;;17.59;64.19;101019.25;5162685;27;8879;-76
2021/09/25 10:22:26;;;;;;;;;5.50;5.50;;;;;17.46;65.80;101017.78;5156811;27;8813;-75
2021/09/25 10:25:22;;;;;;;;;4.50;4.50;;;;;17.45;66.05;101024.56;5156094;27;8954;-75
2021/09/25 10:28:25;;;;;;;;;6.00;6.00;;;;;17.25;66.45;101032.16;5155268;27;8934;-76
2021/09/25 10:31:21;;;;;;;;;6.50;6.50;;;;;17.21;67.43;101036.88;5157993;27;8829;-77
2021/09/25 10:34:27;;;;;;;;;5.25;5.25;;;;;17.05;65.45;101038.91;5156537;27;8829;-76
2021/09/25 10:37:22;;;;;;;;;7.00;7.00;;;;;17.06;66.89;101037.75;5156896;27;8810;-77
2021/09/25 10:40:24;;;;;;;;;7.00;7.00;;;;;17.03;66.03;101036.50;5160194;27;8841;-75
2021/09/25 10:43:28;;;;;;;;;6.75;6.25;;;;;17.11;66.20;101037.47;5167384;27;8858;-76
2021/09/25 10:46:23;;;;;;;;;6.25;6.25;;;;;17.06;65.34;101030.16;5164094;27;8934;-76
2021/09/25 10:49:19;;;;;;;;;6.75;6.75;;;;;17.30;66.12;101031.84;5155382;27;8869;-76
2021/09/25 10:52:18;;;;;;;;;9.00;9.00;;;;;17.72;66.19;101022.72;5155280;27;8828;-76
2021/09/25 10:55:19;;;;;;;;;7.00;7.00;;;;;18.78;63.26;101037.69;5153976;27;8944;-72
2021/09/25 10:58:18;;;;;;;;;5.75;5.75;;;;;19.51;60.08;101043.84;5160193;27;9034;-75
2021/09/25 11:01:16;;;;;;;;;4.00;4.00;;;;;20.04;57.67;101046.44;5175518;27;8803;-74
2021/09/25 11:04:20;;;;;;;;;3.50;3.50;;;;;20.34;56.84;101046.28;5175667;27;8843;-75
2021/09/25 11:07:36;;;;;;;;;5.25;5.25;;;;;20.49;55.89;101044.44;5161280;27;8823;-75
2021/09/25 11:10:56;;;;;;;;;4.00;4.00;;;;;20.77;56.26;101049.44;5175960;27;8899;-76
2021/09/25 11:14:01;;;;;;;;;5.00;5.00;;;;;20.81;55.45;101037.03;5163106;27;8821;-76
2021/09/25 11:16:57;;;;;;;;;5.00;5.00;;;;;20.76;56.51;101030.94;5157356;27;8853;-76
2021/09/25 11:19:57;;;;;;;;;3.50;3.50;;;;;21.29;54.78;101033.25;5158091;27;8832;-76
2021/09/25 11:22:57;;;;;;;;;3.25;3.25;;;;;20.97;51.48;101033.09;5174062;27;8823;-75
2021/09/25 11:25:53;;;;;;;;;4.75;4.75;;;;;20.59;53.29;101028.84;5175904;27;8899;-75
2021/09/25 11:28:48;;;;;;;;;4.00;4.00;;;;;20.36;51.97;101029.03;5160308;27;9629;-76
2021/09/25 11:31:49;;;;;;;;;5.00;5.00;;;;;20.66;53.99;101026.09;5154757;27;8889;-76
2021/09/25 11:34:44;;;;;;;;;4.75;4.75;;;;;20.61;52.72;101020.81;5155521;27;8851;-75
2021/09/25 11:37:46;;;;;;;;;6.00;6.00;;;;;20.60;50.98;101031.25;5168167;27;8861;-76
2021/09/25 11:40:49;;;;;;;;;5.50;5.50;;;;;20.53;53.80;101031.19;5161386;27;8841;-74
2021/09/25 11:43:56;;;;;;;;;3.00;3.00;;;;;20.32;52.33;101042.25;5175665;27;8862;-80
2021/09/25 11:46:51;;;;;;;;;2.25;2.25;;;;;20.33;52.19;101044.69;5176341;27;8850;-80
2021/09/25 11:49:48;;;;;;;;;3.75;3.75;;;;;20.70;52.42;101055.84;5175034;27;8861;-80
2021/09/25 11:52:48;;;;;;;;;3.00;3.00;;;;;21.39;50.24;101057.81;5165421;27;9834;-79
2021/09/25 11:55:45;;;;;;;;;3.00;3.00;;;;;21.73;48.80;101054.72;5142099;27;8837;-79
2021/09/25 11:58:41;;;;;;;;;4.00;4.00;;;;;21.93;48.74;101053.97;5154565;27;8912;-78
2021/09/25 12:01:37;;;;;;;;;3.00;3.00;;;;;21.77;47.35;101061.94;5156293;27;8825;-79
2021/09/25 12:04:40;;;;;;;;;3.80;3.80;;;;;21.95;48.71;101058.38;5154339;27;8845;-78
2021/09/25 12:07:44;;;;;;;;;4.20;4.20;;;;;21.60;48.31;101065.53;5154294;27;8833;-79
2021/09/25 12:10:42;;;;;;;;;3.75;3.75;;;;;21.23;49.06;101072.16;5150786;27;8903;-79
2021/09/25 12:13:41;;;;;;;;;5.00;5.00;;;;;20.79;50.66;101072.34;5174268;27;9453;-79
2021/09/25 12:16:36;;;;;;;;;7.25;6.00;;;;;20.45;52.32;101068.88;5155502;27;8833;-78
2021/09/25 12:19:32;;;;;;;;;5.00;5.00;;;;;20.47;52.74;101066.47;5169693;27;8859;-78
2021/09/25 12:22:29;;;;;;;;;5.00;5.00;;;;;20.15;52.80;101071.78;5167758;27;8853;-77
2021/09/25 12:25:26;;;;;;;;;4.00;4.00;;;;;20.05;53.16;101073.31;5155868;27;8813;-77
2021/09/25 12:28:35;;;;;;;;;3.00;3.00;;;;;19.58;54.32;101079.63;5168811;27;8834;-78
2021/09/25 12:31:36;;;;;;;;;5.00;5.00;;;;;19.57;55.26;101081.63;5155377;27;8885;-79
2021/09/25 12:34:31;;;;;;;;;5.00;5.00;;;;;19.43;55.72;101079.41;5159808;27;8842;-77
2021/09/25 12:37:28;;;;;;;;;6.00;6.00;;;;;19.26;55.76;101082.00;5174565;27;8857;-79
2021/09/25 12:40:23;;;;;;;;;3.00;3.00;;;;;19.25;56.08;101084.00;5171070;27;8845;-80
2021/09/25 12:43:20;;;;;;;;;5.50;5.50;;;;;19.33;57.09;101090.50;5160953;27;8843;-78
2021/09/25 12:46:21;;;;;;;;;4.75;4.75;;;;;19.36;56.66;101095.34;5169890;27;8823;-78
2021/09/25 12:49:17;;;;;;;;;5.50;4.75;;;;;19.68;56.23;101090.16;5162715;27;8841;-77
2021/09/25 12:52:14;;;;;;;;;4.75;4.75;;;;;19.73;55.75;101095.44;5173860;27;8831;-80
2021/09/25 12:55:11;;;;;;;;;4.75;4.75;;;;;19.62;54.80;101098.09;5158072;27;8922;-79
2021/09/25 12:58:06;;;;;;;;;4.00;4.00;;;;;19.63;54.77;101107.31;5157195;27;8833;-79
2021/09/25 13:01:02;;;;;;;;;1.00;1.00;;;;;19.76;54.12;101107.88;5158136;27;8851;-78
2021/09/25 13:04:16;;;;;;;;;4.00;4.00;;;;;19.75;55.05;101098.66;5143757;27;8846;-78
2021/09/25 13:07:12;;;;;;;;;4.00;4.00;;;;;19.67;54.22;101105.38;5158214;27;8841;-79
2021/09/25 13:10:14;;;;;;;;;3.50;3.50;;;;;19.65;54.69;101110.56;5142730;27;8848;-78
2021/09/25 13:13:18;;;;;;;;;2.25;2.25;;;;;19.59;56.99;101120.50;5156140;27;8841;-79
2021/09/25 13:16:13;;;;;;;;;6.00;6.00;;;;;19.57;55.63;101123.69;5155813;27;8920;-79
2021/09/25 13:19:09;;;;;;;;;4.75;4.75;;;;;19.37;56.87;101130.59;5142132;27;8872;-79
2021/09/25 13:22:08;;;;;;;;;7.50;7.50;;;;;19.29;57.13;101134.50;5156123;27;8845;-78
2021/09/25 13:25:05;;;;;;;;;5.00;5.00;;;;;18.97;57.58;101134.06;5157548;27;8872;-77
2021/09/25 13:28:05;;;;;;;;;5.25;5.25;;;;;18.84;57.02;101139.84;5156221;27;8845;-81
2021/09/25 13:31:00;;;;;;;;;5.75;5.75;;;;;18.76;58.91;101148.53;5155096;27;8821;-78
2021/09/25 13:33:56;;;;;;;;;5.25;5.25;;;;;18.74;58.07;101153.69;5152754;27;8838;-77
2021/09/25 13:36:51;;;;;;;;;7.00;7.00;;;;;18.82;58.96;101155.44;5176467;27;8870;-78